createdAt,value
2018-11-20T00:02:29.697Z,4.20
2018-11-20T00:05:18.285Z,4.30
2018-11-20T00:08:25.161Z,4.40
2018-11-20T00:11:12.091Z,4.40
2018-11-20T00:13:49.429Z,4.40
2018-11-20T00:16:29.103Z,4.50
2018-11-20T00:19:16.337Z,4.50
2018-11-20T00:22:03.230Z,4.50
2018-11-20T00:24:54.576Z,4.60
2018-11-20T00:27:41.890Z,4.60
2018-11-20T00:30:29.164Z,4.60
2018-11-20T00:33:17.684Z,4.60
2018-11-20T00:35:58.488Z,4.70
2018-11-20T00:38:38.061Z,4.70
2018-11-20T00:41:24.989Z,4.70
2018-11-20T00:44:12.368Z,4.70
2018-11-20T00:47:00.781Z,4.70
2018-11-20T00:49:54.679Z,4.80
2018-11-20T00:52:58.396Z,4.80
2018-11-20T00:56:21.560Z,4.80
2018-11-20T00:59:21.954Z,4.80
2018-11-20T01:02:28.319Z,4.60
2018-11-20T01:05:29.335Z,4.50
2018-11-20T01:08:17.743Z,4.40
2018-11-20T01:11:09.172Z,4.40
2018-11-20T01:13:51.151Z,4.30
2018-11-20T01:16:38.404Z,4.30
2018-11-20T01:19:29.491Z,4.30
2018-11-20T01:22:16.895Z,4.40
2018-11-20T01:25:15.859Z,4.40
2018-11-20T01:28:00.621Z,4.40
2018-11-20T01:30:47.973Z,4.50
2018-11-20T01:33:35.256Z,4.40
2018-11-20T01:36:15.602Z,4.40
2018-11-20T01:39:02.858Z,4.40
2018-11-20T01:41:51.282Z,4.30
2018-11-20T01:44:45.619Z,4.20
2018-11-20T01:47:43.329Z,4.20
2018-11-20T01:50:30.358Z,4.10
2018-11-20T01:53:37.134Z,4.10
2018-11-20T01:56:24.493Z,4.90
2018-11-20T01:59:07.423Z,4.00
2018-11-20T02:01:54.326Z,4.00
2018-11-20T02:04:55.172Z,4.00
2018-11-20T02:07:49.540Z,4.00
2018-11-20T02:10:38.576Z,3.90
2018-11-20T02:14:04.045Z,4.00
2018-11-20T02:16:53.793Z,4.00
2018-11-20T02:19:41.078Z,4.10
2018-11-20T02:22:29.521Z,4.10
2018-11-20T02:25:27.162Z,4.10
2018-11-20T02:28:16.205Z,4.10
2018-11-20T02:30:54.807Z,4.10
2018-11-20T02:33:48.979Z,4.00
2018-11-20T02:36:32.619Z,3.90
2018-11-20T02:39:12.316Z,3.80
2018-11-20T02:42:06.712Z,3.80
2018-11-20T02:45:01.066Z,3.70
2018-11-20T02:47:48.349Z,3.70
2018-11-20T02:50:40.623Z,3.70
2018-11-20T02:53:27.480Z,3.60
2018-11-20T02:56:22.204Z,3.60
2018-11-20T02:59:13.427Z,3.50
2018-11-20T03:02:16.918Z,3.50
2018-11-20T03:05:05.171Z,3.50
2018-11-20T03:07:45.206Z,3.60
2018-11-20T03:10:26.757Z,3.80
2018-11-20T03:13:15.220Z,3.80
2018-11-20T03:16:07.050Z,3.80
2018-11-20T03:18:51.959Z,3.80
2018-11-20T03:21:40.463Z,3.90
2018-11-20T03:24:28.959Z,3.90
2018-11-20T03:27:20.975Z,3.80
2018-11-20T03:30:48.185Z,3.80
2018-11-20T03:33:35.522Z,3.80
2018-11-20T03:36:29.069Z,3.70
2018-11-20T03:39:20.309Z,3.60
2018-11-20T03:42:02.815Z,3.60
2018-11-20T03:44:54.167Z,3.60
2018-11-20T03:47:47.303Z,3.60
2018-11-20T03:50:34.128Z,3.70
2018-11-20T03:53:31.585Z,3.70
2018-11-20T03:56:20.079Z,3.70
2018-11-20T03:59:20.646Z,3.70
2018-11-20T04:02:21.359Z,3.70
2018-11-20T04:05:18.958Z,3.80
2018-11-20T04:08:06.398Z,3.90
2018-11-20T04:10:53.298Z,3.90
2018-11-20T04:13:56.992Z,4.00
2018-11-20T04:16:43.274Z,4.10
2018-11-20T04:19:31.744Z,4.10
2018-11-20T04:22:16.896Z,4.10
2018-11-20T04:25:08.103Z,4.20
2018-11-20T04:27:51.709Z,4.20
2018-11-20T04:31:09.462Z,4.20
2018-11-20T04:34:14.341Z,4.30
2018-11-20T04:37:26.628Z,4.30
2018-11-20T04:40:17.765Z,4.30
2018-11-20T04:43:07.139Z,4.30
2018-11-20T04:46:13.856Z,4.30
2018-11-20T04:48:54.528Z,4.40
2018-11-20T04:51:41.496Z,4.40
2018-11-20T04:54:45.220Z,4.40
2018-11-20T04:57:32.239Z,4.50
2018-11-20T05:00:26.669Z,4.40
2018-11-20T05:03:20.951Z,4.50
2018-11-20T05:06:24.271Z,4.50
2018-11-20T05:09:11.494Z,4.50
2018-11-20T05:12:02.987Z,4.50
2018-11-20T05:14:50.281Z,4.50
2018-11-20T05:17:31.101Z,4.50
2018-11-20T05:20:15.460Z,4.50
2018-11-20T05:23:08.980Z,4.50
2018-11-20T05:26:04.025Z,4.50
2018-11-20T05:28:58.550Z,4.60
2018-11-20T05:31:45.766Z,4.50
2018-11-20T05:34:34.252Z,4.60
2018-11-20T05:37:21.233Z,4.60
2018-11-20T05:40:15.784Z,4.60
2018-11-20T05:43:02.678Z,4.60
2018-11-20T05:45:54.439Z,4.60
2018-11-20T05:48:41.620Z,4.60
2018-11-20T05:51:27.448Z,4.70
2018-11-20T05:54:18.724Z,4.70
2018-11-20T05:56:55.558Z,4.70
2018-11-20T05:59:42.625Z,4.70
2018-11-20T06:02:42.890Z,4.70
2018-11-20T06:05:34.468Z,4.70
2018-11-20T06:08:40.972Z,4.70
2018-11-20T06:11:34.170Z,4.70
2018-11-20T06:14:21.468Z,4.70
2018-11-20T06:17:08.630Z,4.70
2018-11-20T06:20:06.022Z,4.70
2018-11-20T06:22:50.631Z,4.70
2018-11-20T06:25:39.166Z,4.70
2018-11-20T06:28:36.517Z,4.80
2018-11-20T06:31:27.729Z,4.80
2018-11-20T06:34:14.976Z,4.80
2018-11-20T06:37:02.352Z,4.80
2018-11-20T06:39:49.690Z,4.80
2018-11-20T06:42:50.221Z,4.80
2018-11-20T06:45:39.265Z,4.80
2018-11-20T06:48:26.295Z,4.80
2018-11-20T06:51:13.427Z,4.80
2018-11-20T06:54:08.454Z,4.80
2018-11-20T06:56:58.358Z,4.80
2018-11-20T06:59:49.912Z,4.90
2018-11-20T07:02:37.084Z,4.80
2018-11-20T07:05:16.016Z,4.80
2018-11-20T07:07:53.864Z,4.90
2018-11-20T07:10:47.047Z,4.90
2018-11-20T07:13:39.354Z,4.90
2018-11-20T07:16:54.594Z,4.80
2018-11-20T07:19:45.619Z,4.80
2018-11-20T07:22:33.682Z,4.80
2018-11-20T07:25:22.279Z,4.80
2018-11-20T07:28:19.495Z,4.90
2018-11-20T07:31:06.542Z,4.90
2018-11-20T07:33:57.640Z,4.90
2018-11-20T07:36:45.028Z,4.90
2018-11-20T07:39:27.752Z,4.90
2018-11-20T07:42:05.482Z,4.90
2018-11-20T07:44:59.769Z,4.90
2018-11-20T07:48:03.754Z,4.90
2018-11-20T07:50:56.488Z,4.90
2018-11-20T07:53:53.727Z,4.90
2018-11-20T07:56:40.780Z,4.90
2018-11-20T07:59:28.214Z,5.00
2018-11-20T08:02:09.425Z,5.00
2018-11-20T08:04:58.413Z,5.00
2018-11-20T08:07:53.105Z,5.00
2018-11-20T08:10:40.104Z,4.90
2018-11-20T08:13:20.525Z,5.00
2018-11-20T08:16:04.379Z,4.90
2018-11-20T08:18:47.592Z,4.90
2018-11-20T08:21:37.321Z,4.90
2018-11-20T08:24:24.656Z,4.90
2018-11-20T08:27:03.292Z,4.90
2018-11-20T08:29:54.763Z,4.90
2018-11-20T08:32:41.941Z,4.90
2018-11-20T08:35:45.703Z,4.90
2018-11-20T08:38:34.351Z,4.90
2018-11-20T08:41:37.987Z,4.80
2018-11-20T08:44:35.514Z,4.80
2018-11-20T08:47:22.873Z,4.70
2018-11-20T08:50:10.303Z,4.70
2018-11-20T08:53:05.067Z,4.60
2018-11-20T08:56:02.852Z,4.60
2018-11-20T08:59:06.534Z,4.60
2018-11-20T09:01:55.162Z,4.50
2018-11-20T09:04:46.771Z,4.50
2018-11-20T09:07:47.274Z,4.50
2018-11-20T09:10:51.004Z,4.40
2018-11-20T09:13:37.992Z,4.40
2018-11-20T09:16:19.205Z,4.40
2018-11-20T09:19:06.234Z,4.40
2018-11-20T09:22:00.788Z,4.30
2018-11-20T09:24:37.604Z,4.30
2018-11-20T09:27:23.319Z,4.30
2018-11-20T09:30:30.606Z,4.30
2018-11-20T09:33:07.603Z,4.40
2018-11-20T09:35:59.244Z,4.50
2018-11-20T09:38:46.341Z,4.50
2018-11-20T09:41:33.673Z,4.50
2018-11-20T09:45:19.064Z,4.60
2018-11-20T09:48:03.407Z,4.60
2018-11-20T09:50:45.673Z,4.70
2018-11-20T09:53:29.764Z,4.70
2018-11-20T09:56:30.610Z,4.80
2018-11-20T09:59:19.332Z,4.80
2018-11-20T10:02:10.956Z,4.80
2018-11-20T10:05:04.164Z,4.90
2018-11-20T10:07:51.393Z,5.00
2018-11-20T10:10:42.857Z,5.00
2018-11-20T10:13:30.022Z,5.00
2018-11-20T10:16:20.890Z,5.10
2018-11-20T10:19:18.634Z,5.10
2018-11-20T10:22:06.094Z,5.10
2018-11-20T10:25:12.933Z,5.10
2018-11-20T10:28:00.217Z,5.20
2018-11-20T10:30:48.801Z,5.10
2018-11-20T10:33:37.524Z,5.20
2018-11-20T10:36:44.382Z,5.20
2018-11-20T10:39:32.871Z,5.20
2018-11-20T10:42:21.446Z,5.20
2018-11-20T10:45:12.748Z,5.30
2018-11-20T10:48:04.238Z,5.20
2018-11-20T10:50:51.482Z,5.20
2018-11-20T10:53:40.581Z,5.10
2018-11-20T10:56:32.181Z,5.20
2018-11-20T10:59:38.668Z,5.20
2018-11-20T11:02:26.417Z,5.20
2018-11-20T11:05:13.655Z,5.30
2018-11-20T11:08:08.693Z,5.40
2018-11-20T11:11:12.019Z,5.40
2018-11-20T11:13:59.409Z,5.60
2018-11-20T11:16:45.514Z,5.70
2018-11-20T11:19:40.108Z,5.70
2018-11-20T11:22:25.795Z,5.90
2018-11-20T11:25:32.585Z,5.90
2018-11-20T11:28:19.790Z,6.00
2018-11-20T11:31:26.605Z,5.90
2018-11-20T11:34:15.157Z,5.80
2018-11-20T11:37:02.694Z,5.80
2018-11-20T11:39:53.494Z,5.70
2018-11-20T11:42:57.190Z,5.70
2018-11-20T11:45:44.462Z,5.70
2018-11-20T11:48:36.110Z,5.70
2018-11-20T11:51:27.609Z,5.70
2018-11-20T11:54:22.449Z,5.80
2018-11-20T11:57:09.728Z,5.80
2018-11-20T11:59:57.102Z,5.70
2018-11-20T12:05:47.010Z,5.70
2018-11-20T12:08:50.713Z,5.70
2018-11-20T12:11:42.306Z,5.70
2018-11-20T12:14:29.454Z,5.70
2018-11-20T12:17:30.130Z,5.70
2018-11-20T12:20:17.399Z,5.70
2018-11-20T12:23:21.193Z,5.70
2018-11-20T12:26:00.800Z,5.80
2018-11-20T12:28:51.094Z,5.80
2018-11-20T12:31:34.784Z,5.80
2018-11-20T12:34:29.249Z,5.90
2018-11-20T12:37:24.565Z,5.90
2018-11-20T12:40:10.742Z,5.90
2018-11-20T12:42:53.843Z,5.90
2018-11-20T12:45:53.895Z,5.90
2018-11-20T12:48:40.944Z,5.90
2018-11-20T12:51:27.853Z,5.80
2018-11-20T12:54:25.385Z,5.80
2018-11-20T12:57:14.060Z,5.80
2018-11-20T13:00:16.725Z,5.80
2018-11-20T13:03:13.913Z,5.70
2018-11-20T13:06:01.340Z,5.80
2018-11-20T13:09:00.916Z,5.80
2018-11-20T13:11:46.425Z,5.80
2018-11-20T13:14:33.826Z,5.90
2018-11-20T13:17:40.635Z,5.90
2018-11-20T13:20:29.525Z,5.90
2018-11-20T13:23:16.311Z,6.00
2018-11-20T13:25:54.569Z,5.90
2018-11-20T13:28:41.729Z,5.80
2018-11-20T13:31:24.618Z,5.80
2018-11-20T13:34:13.201Z,5.80
2018-11-20T13:36:56.036Z,5.80
2018-11-20T13:39:39.971Z,5.80
2018-11-20T13:42:31.857Z,5.80
2018-11-20T13:45:18.422Z,5.80
2018-11-20T13:48:01.331Z,5.80
2018-11-20T13:50:51.855Z,5.80
2018-11-20T13:53:28.148Z,5.80
2018-11-20T13:56:28.619Z,5.70
2018-11-20T13:59:16.132Z,5.70
2018-11-20T14:02:03.359Z,5.70
2018-11-20T14:04:50.643Z,5.60
2018-11-20T14:07:37.862Z,5.70
2018-11-20T14:10:37.563Z,5.60
2018-11-20T14:13:35.070Z,5.70
2018-11-20T14:16:22.271Z,5.60
2018-11-20T14:19:28.584Z,5.60
2018-11-20T14:22:15.671Z,5.60
2018-11-20T14:25:23.584Z,5.50
2018-11-20T14:28:14.278Z,5.50
2018-11-20T14:30:59.209Z,5.40
2018-11-20T14:33:56.906Z,5.40
2018-11-20T14:36:51.259Z,5.30
2018-11-20T14:39:36.679Z,5.30
2018-11-20T14:42:23.668Z,5.30
2018-11-20T14:45:15.012Z,5.30
2018-11-20T14:48:01.957Z,5.40
2018-11-20T14:50:55.029Z,5.30
2018-11-20T14:53:41.988Z,5.40
2018-11-20T14:56:18.808Z,5.40
2018-11-20T14:59:05.999Z,5.40
2018-11-20T15:02:06.428Z,5.40
2018-11-20T15:04:54.925Z,5.30
2018-11-20T15:08:05.215Z,5.30
2018-11-20T15:10:56.529Z,5.30
2018-11-20T15:13:51.528Z,5.20
2018-11-20T15:16:40.038Z,5.20
2018-11-20T15:19:46.799Z,5.20
2018-11-20T15:22:38.204Z,5.20
2018-11-20T15:25:29.845Z,5.20
2018-11-20T15:28:14.097Z,5.20
2018-11-20T15:31:14.078Z,5.20
2018-11-20T15:34:17.807Z,5.20
2018-11-20T15:37:06.423Z,5.10
2018-11-20T15:39:57.860Z,5.10
2018-11-20T15:42:44.805Z,5.10
2018-11-20T15:45:32.363Z,5.10
2018-11-20T15:48:26.525Z,5.10
2018-11-20T15:51:13.750Z,5.10
2018-11-20T15:54:11.184Z,5.10
2018-11-20T15:56:58.471Z,5.20
2018-11-20T15:59:56.029Z,5.10
2018-11-20T16:02:36.298Z,5.10
2018-11-20T16:05:31.281Z,5.10
2018-11-20T16:08:34.678Z,5.10
2018-11-20T16:11:28.965Z,5.10
2018-11-20T16:14:15.934Z,5.10
2018-11-20T16:17:22.430Z,5.10
2018-11-20T16:20:10.988Z,5.10
2018-11-20T16:23:05.595Z,5.10
2018-11-20T16:25:45.690Z,6.00
2018-11-20T16:28:46.128Z,5.20
2018-11-20T16:31:41.879Z,5.20
2018-11-20T16:34:48.539Z,5.20
2018-11-20T16:37:35.894Z,5.20
2018-11-20T16:40:24.065Z,5.20
2018-11-20T16:43:11.571Z,5.20
2018-11-20T16:45:54.658Z,5.20
2018-11-20T16:48:49.181Z,5.20
2018-11-20T16:51:36.544Z,5.20
2018-11-20T16:54:27.815Z,5.30
2018-11-20T16:57:14.806Z,5.40
2018-11-20T17:00:06.297Z,5.30
2018-11-20T17:03:00.399Z,5.40
2018-11-20T17:06:01.012Z,5.40
2018-11-20T17:08:55.368Z,5.40
2018-11-20T17:11:53.011Z,5.40
2018-11-20T17:14:56.705Z,5.30
2018-11-20T17:17:45.274Z,5.30
2018-11-20T17:20:33.373Z,5.30
2018-11-20T17:23:21.955Z,5.30
2018-11-20T17:26:00.147Z,5.30
2018-11-20T17:28:47.092Z,5.30
2018-11-20T17:31:34.406Z,5.20
2018-11-20T17:34:25.694Z,5.20
2018-11-20T17:37:22.973Z,5.30
2018-11-20T17:40:20.943Z,5.20
2018-11-20T17:43:14.970Z,5.20
2018-11-20T17:46:06.864Z,5.20
2018-11-20T17:48:49.096Z,5.10
2018-11-20T17:51:37.580Z,5.10
2018-11-20T17:54:27.263Z,5.20
2018-11-20T17:57:21.641Z,5.20
2018-11-20T18:00:12.856Z,5.20
2018-11-20T18:03:01.246Z,5.20
2018-11-20T18:05:58.994Z,5.50
2018-11-20T18:08:53.036Z,5.40
2018-11-20T18:11:40.106Z,5.30
2018-11-20T18:14:27.337Z,5.20
2018-11-20T18:17:20.126Z,5.20
2018-11-20T18:20:06.026Z,5.20
2018-11-20T18:22:54.503Z,5.20
2018-11-20T18:25:43.670Z,5.20
2018-11-20T18:28:23.667Z,5.20
2018-11-20T18:31:21.208Z,5.30
2018-11-20T18:34:18.762Z,5.20
2018-11-20T18:37:08.124Z,5.20
2018-11-20T18:39:56.589Z,5.20
2018-11-20T18:42:43.642Z,5.20
2018-11-20T18:45:31.032Z,5.30
2018-11-20T18:51:30.965Z,5.20
2018-11-20T18:54:18.397Z,5.20
2018-11-20T18:57:09.871Z,5.20
2018-11-20T19:00:04.621Z,5.20
2018-11-20T19:02:55.975Z,5.20
2018-11-20T19:05:43.235Z,5.20
2018-11-20T19:08:31.786Z,5.20
2018-11-20T19:11:19.264Z,5.20
2018-11-20T19:14:06.701Z,5.20
2018-11-20T19:16:53.872Z,5.20
2018-11-20T19:19:54.701Z,5.10
2018-11-20T19:22:41.731Z,5.20
2018-11-20T19:25:45.539Z,5.20
2018-11-20T19:28:45.979Z,5.30
2018-11-20T19:31:53.023Z,5.20
2018-11-20T19:34:34.039Z,5.20
2018-11-20T19:37:25.396Z,5.20
2018-11-20T19:40:09.869Z,5.30
2018-11-20T19:43:01.339Z,5.30
2018-11-20T19:45:58.863Z,5.20
2018-11-20T19:48:51.839Z,5.30
2018-11-20T19:52:00.771Z,5.30
2018-11-20T19:54:43.788Z,5.30
2018-11-20T19:57:48.304Z,5.20
2018-11-20T20:00:30.382Z,5.20
2018-11-20T20:03:31.049Z,5.20
2018-11-20T20:06:18.162Z,5.10
2018-11-20T20:09:05.360Z,5.10
2018-11-20T20:12:08.310Z,5.10
2018-11-20T20:14:59.533Z,5.10
2018-11-20T20:17:50.914Z,5.10
2018-11-20T20:20:38.104Z,5.10
2018-11-20T20:23:25.450Z,5.00
2018-11-20T20:26:20.105Z,5.00
2018-11-20T20:29:23.453Z,5.00
2018-11-20T20:32:17.640Z,4.90
2018-11-20T20:35:05.117Z,5.00
2018-11-20T20:37:52.531Z,4.90
2018-11-20T20:40:59.375Z,4.90
2018-11-20T20:43:46.629Z,4.90
2018-11-20T20:46:34.068Z,4.90
2018-11-20T20:49:28.450Z,4.90
2018-11-20T20:52:15.875Z,4.90
2018-11-20T20:55:03.214Z,4.90
2018-11-20T20:58:03.942Z,4.90
2018-11-20T21:00:51.313Z,4.90
2018-11-20T21:03:40.371Z,4.90
2018-11-20T21:06:31.840Z,4.90
2018-11-20T21:09:19.121Z,4.90
2018-11-20T21:12:13.832Z,4.90
2018-11-20T21:15:05.084Z,4.90
2018-11-20T21:17:51.963Z,4.90
2018-11-20T21:20:46.570Z,4.90
2018-11-20T21:23:37.671Z,4.80
2018-11-20T21:26:26.278Z,4.80
2018-11-20T21:29:13.599Z,4.80
2018-11-20T21:32:11.209Z,4.90
2018-11-20T21:35:02.659Z,4.90
2018-11-20T21:37:49.803Z,4.80
2018-11-20T21:40:32.272Z,4.90
2018-11-20T21:43:23.753Z,4.90
2018-11-20T21:46:12.400Z,4.90
2018-11-20T21:49:10.230Z,4.80
2018-11-20T21:51:58.725Z,4.80
2018-11-20T21:54:50.152Z,4.60
2018-11-20T21:57:41.357Z,4.60
2018-11-20T22:00:48.958Z,4.60
2018-11-20T22:03:36.111Z,4.60
2018-11-20T22:07:19.890Z,4.70
2018-11-20T22:10:06.431Z,4.70
2018-11-20T22:12:52.677Z,4.70
2018-11-20T22:15:39.051Z,4.70
2018-11-20T22:18:25.365Z,4.70
2018-11-20T22:21:15.583Z,4.70
2018-11-20T22:24:02.130Z,4.70
2018-11-20T22:26:58.418Z,4.70
2018-11-20T22:29:49.167Z,4.70
2018-11-20T22:32:35.705Z,4.70
2018-11-20T22:35:16.131Z,4.70
2018-11-20T22:38:04.307Z,4.70
2018-11-20T22:40:50.473Z,4.80
2018-11-20T22:43:53.053Z,4.80
2018-11-20T22:46:38.586Z,4.80
2018-11-20T22:49:25.266Z,4.80
2018-11-20T22:52:13.098Z,4.80
2018-11-20T22:55:12.946Z,4.80
2018-11-20T22:57:59.115Z,4.80
2018-11-20T23:00:45.236Z,4.80
2018-11-20T23:03:41.771Z,4.60
2018-11-20T23:06:30.982Z,4.50
2018-11-20T23:08:59.533Z,4.40
2018-11-20T23:11:28.046Z,4.30
2018-11-20T23:13:56.549Z,4.30
2018-11-20T23:16:25.089Z,4.20
2018-11-20T23:18:53.561Z,4.20
2018-11-20T23:21:23.245Z,4.10
2018-11-20T23:23:50.668Z,4.10
2018-11-20T23:26:19.290Z,4.10
2018-11-20T23:28:47.768Z,4.10
2018-11-20T23:31:16.276Z,4.10
2018-11-20T23:33:44.806Z,3.70
2018-11-20T23:36:13.404Z,4.10
2018-11-20T23:38:41.932Z,4.10
2018-11-20T23:41:10.561Z,4.10
2018-11-20T23:43:39.049Z,4.10
2018-11-20T23:46:07.654Z,4.10
2018-11-20T23:48:36.149Z,4.20
2018-11-20T23:51:04.771Z,4.20
2018-11-20T23:53:33.289Z,4.20
2018-11-20T23:56:01.834Z,4.20
2018-11-20T23:58:30.370Z,4.20
